createdAt,value
2023-03-14T00:01:22.960Z,98369.25
2023-03-14T00:03:52.633Z,98351.28
2023-03-14T00:06:22.465Z,98360.94
2023-03-14T00:08:49.368Z,98366.59
2023-03-14T00:11:19.510Z,98371.06
2023-03-14T00:13:50.846Z,98365.25
2023-03-14T00:16:18.022Z,98353.59
2023-03-14T00:18:45.022Z,98352.75
2023-03-14T00:21:14.008Z,98362.56
2023-03-14T00:23:42.619Z,98347.28
2023-03-14T00:26:15.847Z,98333.44
2023-03-14T00:28:51.334Z,98324.13
2023-03-14T00:31:18.443Z,98317.13
2023-03-14T00:33:46.296Z,98306.47
2023-03-14T00:36:16.084Z,98307.34
2023-03-14T00:38:43.832Z,98306.00
2023-03-14T00:41:13.251Z,98286.53
2023-03-14T00:43:40.513Z,98287.38
2023-03-14T00:46:10.595Z,98283.69
2023-03-14T00:48:40.487Z,98274.38
2023-03-14T00:51:09.894Z,98278.19
2023-03-14T00:53:38.312Z,98287.03
2023-03-14T00:56:07.726Z,98287.03
2023-03-14T00:58:34.807Z,98281.53
2023-03-14T01:01:07.182Z,98287.50
2023-03-14T01:03:36.052Z,98278.00
2023-03-14T01:06:26.641Z,98273.84
2023-03-14T01:08:54.212Z,98261.75
2023-03-14T01:11:27.084Z,98278.84
2023-03-14T01:13:59.768Z,98252.75
2023-03-14T01:16:31.388Z,98246.94
2023-03-14T01:19:01.805Z,98246.09
2023-03-14T01:21:31.650Z,98258.72
2023-03-14T01:24:01.313Z,98276.84
2023-03-14T01:26:31.463Z,98282.31
2023-03-14T01:28:59.411Z,98297.59
2023-03-14T01:32:13.306Z,98310.38
2023-03-14T01:34:38.624Z,98317.91
2023-03-14T01:37:09.196Z,98313.06
2023-03-14T01:39:38.207Z,98332.53
2023-03-14T01:42:12.807Z,98331.66
2023-03-14T01:44:58.419Z,98327.03
2023-03-14T01:47:28.346Z,98325.38
2023-03-14T01:49:57.182Z,98330.69
2023-03-14T01:52:29.075Z,98340.84
2023-03-14T01:55:01.551Z,98338.00
2023-03-14T01:57:38.585Z,98354.13
2023-03-14T02:00:24.709Z,98375.25
2023-03-14T02:02:58.698Z,98351.66
2023-03-14T02:05:34.498Z,98332.34
2023-03-14T02:08:13.039Z,98332.84
2023-03-14T02:14:04.262Z,98309.56
2023-03-14T02:16:51.757Z,98300.25
2023-03-14T02:19:51.718Z,98312.22
2023-03-14T02:22:46.741Z,98300.25
2023-03-14T02:25:54.309Z,98307.06
2023-03-14T02:28:30.580Z,98304.72
2023-03-14T02:31:11.081Z,98292.41
2023-03-14T02:33:43.788Z,98288.75
2023-03-14T02:36:16.253Z,98284.72
2023-03-14T02:38:55.011Z,98284.28
2023-03-14T02:41:27.048Z,98286.22
2023-03-14T02:44:01.417Z,98280.09
2023-03-14T02:49:17.888Z,98273.66
2023-03-14T02:51:50.934Z,98272.16
2023-03-14T02:54:27.257Z,98266.63
2023-03-14T02:56:59.744Z,98271.81
2023-03-14T02:59:40.094Z,98260.50
2023-03-14T03:02:29.280Z,98244.22
2023-03-14T03:05:00.605Z,98235.44
2023-03-14T03:07:35.419Z,98218.25
2023-03-14T03:10:05.462Z,98224.41
2023-03-14T03:12:34.888Z,98217.41
2023-03-14T03:15:10.156Z,98211.56
2023-03-14T03:17:45.248Z,98204.13
2023-03-14T03:20:12.521Z,98188.16
2023-03-14T03:22:42.263Z,98176.38
2023-03-14T03:25:17.009Z,98178.34
2023-03-14T03:27:51.781Z,98177.84
2023-03-14T03:30:25.104Z,98185.63
2023-03-14T03:33:03.402Z,98191.97
2023-03-14T03:35:40.593Z,98197.13
2023-03-14T03:38:28.188Z,98200.09
2023-03-14T03:41:07.582Z,98203.59
2023-03-14T03:43:44.238Z,98209.72
2023-03-14T03:46:23.371Z,98201.56
2023-03-14T03:49:10.217Z,98204.75
2023-03-14T03:51:54.451Z,98223.88
2023-03-14T03:54:24.534Z,98220.06
2023-03-14T03:56:52.590Z,98208.91
2023-03-14T03:59:34.056Z,98209.41
2023-03-14T04:02:06.875Z,98213.22
2023-03-14T04:04:42.598Z,98191.97
2023-03-14T04:07:18.241Z,98194.63
2023-03-14T04:09:47.531Z,98199.94
2023-03-14T04:12:51.233Z,98212.38
2023-03-14T04:15:24.566Z,98220.84
2023-03-14T04:18:06.246Z,98189.25
2023-03-14T04:20:38.456Z,98190.47
2023-03-14T04:23:47.298Z,98202.56
2023-03-14T04:32:27.114Z,98178.84
2023-03-14T04:34:54.135Z,98183.81
2023-03-14T04:37:21.048Z,98183.81
2023-03-14T04:39:47.966Z,98194.91
2023-03-14T04:42:25.936Z,98182.47
2023-03-14T04:44:53.009Z,98173.97
2023-03-14T04:47:23.359Z,98154.22
2023-03-14T04:49:51.363Z,98163.00
2023-03-14T04:52:19.054Z,98163.19
2023-03-14T04:55:15.349Z,98159.53
2023-03-14T04:58:26.021Z,98148.22
2023-03-14T05:01:31.380Z,98151.38
2023-03-14T05:04:52.067Z,98132.28
2023-03-14T05:07:51.367Z,98141.22
2023-03-14T05:11:01.853Z,98140.75
2023-03-14T05:13:52.134Z,98143.59
2023-03-14T05:16:50.767Z,98151.22
2023-03-14T05:20:07.980Z,98133.44
2023-03-14T05:22:53.929Z,98130.94
2023-03-14T05:25:33.961Z,98135.91
2023-03-14T05:28:13.585Z,98127.28
2023-03-14T05:31:08.294Z,98124.47
2023-03-14T05:33:54.038Z,98133.44
2023-03-14T05:36:35.724Z,98137.06
2023-03-14T05:39:34.796Z,98116.81
2023-03-14T05:42:22.017Z,98111.69
2023-03-14T05:45:17.890Z,98118.16
2023-03-14T05:48:13.511Z,98117.97
2023-03-14T05:51:00.521Z,98123.78
2023-03-14T05:53:47.782Z,98129.09
2023-03-14T05:56:35.792Z,98134.91
2023-03-14T05:59:10.113Z,98126.31
2023-03-14T06:01:58.234Z,98134.09
2023-03-14T06:04:30.666Z,98130.13
2023-03-14T06:07:00.349Z,98112.00
2023-03-14T06:09:29.695Z,98110.50
2023-03-14T06:11:59.464Z,98121.47
2023-03-14T06:14:26.933Z,98127.47
2023-03-14T06:16:56.351Z,98135.78
2023-03-14T06:19:27.637Z,98138.44
2023-03-14T06:21:57.456Z,98135.59
2023-03-14T06:24:26.241Z,98131.97
2023-03-14T06:26:53.589Z,98135.44
2023-03-14T06:29:23.720Z,98130.31
2023-03-14T06:31:55.592Z,98125.50
2023-03-14T06:34:26.958Z,98147.75
2023-03-14T06:36:59.647Z,98129.47
2023-03-14T06:39:29.968Z,98127.00
2023-03-14T06:42:07.904Z,98138.78
2023-03-14T06:44:35.606Z,98133.81
2023-03-14T06:47:02.980Z,98142.94
2023-03-14T06:49:29.867Z,98147.13
2023-03-14T06:51:59.110Z,98145.09
2023-03-14T06:54:26.048Z,98151.28
2023-03-14T06:56:52.766Z,98161.41
2023-03-14T06:59:19.539Z,98161.22
2023-03-14T07:01:49.645Z,98155.09
2023-03-14T07:04:16.449Z,98162.75
2023-03-14T07:06:47.556Z,98151.66
2023-03-14T07:09:20.767Z,98157.31
2023-03-14T07:11:53.213Z,98170.44
2023-03-14T07:14:21.926Z,98167.09
2023-03-14T07:16:49.447Z,98175.75
2023-03-14T07:19:16.491Z,98192.38
2023-03-14T07:21:43.336Z,98191.72
2023-03-14T07:24:14.060Z,98187.22
2023-03-14T07:26:40.955Z,98182.75
2023-03-14T07:29:07.909Z,98196.22
2023-03-14T07:31:35.115Z,98196.22
2023-03-14T07:34:04.112Z,98177.38
2023-03-14T07:36:35.567Z,98194.72
2023-03-14T07:39:06.017Z,98195.19
2023-03-14T07:41:50.526Z,98187.03
2023-03-14T07:44:41.568Z,98191.72
2023-03-14T07:47:08.300Z,98188.38
2023-03-14T07:49:35.057Z,98193.03
2023-03-14T07:52:01.853Z,98197.84
2023-03-14T07:54:28.758Z,98221.63
2023-03-14T07:56:55.548Z,98192.88
2023-03-14T07:59:22.338Z,98219.66
2023-03-14T08:01:49.094Z,98197.03
2023-03-14T08:04:15.893Z,98176.59
2023-03-14T08:06:42.720Z,98189.38
2023-03-14T08:09:09.886Z,98174.56
2023-03-14T08:11:36.716Z,98184.41
2023-03-14T08:14:03.614Z,98172.25
2023-03-14T08:16:30.560Z,98167.25
2023-03-14T08:18:57.767Z,98160.94
2023-03-14T08:21:24.578Z,98173.41
2023-03-14T08:23:51.411Z,98165.44
2023-03-14T08:26:18.199Z,98157.59
2023-03-14T08:28:45.026Z,98173.91
2023-03-14T08:31:11.897Z,98176.88
2023-03-14T08:33:39.764Z,98175.03
2023-03-14T08:36:06.958Z,98190.34
2023-03-14T08:38:33.829Z,98183.34
2023-03-14T08:41:02.484Z,98183.53
2023-03-14T08:43:29.765Z,98194.19
2023-03-14T08:46:00.356Z,98182.19
2023-03-14T08:48:28.107Z,98188.34
2023-03-14T08:50:54.985Z,98194.19
2023-03-14T08:53:23.473Z,98197.66
2023-03-14T08:55:55.073Z,98198.34
2023-03-14T08:58:23.859Z,98210.16
2023-03-14T09:00:51.195Z,98206.81
2023-03-14T09:03:20.990Z,98197.03
2023-03-14T09:05:50.286Z,98198.81
2023-03-14T09:08:20.473Z,98201.31
2023-03-14T09:10:48.194Z,98208.66
2023-03-14T09:13:27.188Z,98206.47
2023-03-14T09:15:58.344Z,98207.81
2023-03-14T09:18:26.779Z,98184.31
2023-03-14T09:20:53.826Z,98207.09
2023-03-14T09:23:20.861Z,98188.63
2023-03-14T09:25:47.943Z,98200.47
2023-03-14T09:28:17.191Z,98180.63
2023-03-14T09:30:44.910Z,98173.34
2023-03-14T09:33:16.698Z,98162.03
2023-03-14T09:35:49.367Z,98159.19
2023-03-14T09:38:17.494Z,98175.66
2023-03-14T09:40:44.374Z,98177.81
2023-03-14T09:43:14.874Z,98165.66
2023-03-14T10:51:51.619Z,98191.59
2023-03-14T10:54:28.263Z,98181.91
2023-03-14T10:57:02.306Z,98179.94
2023-03-14T10:59:36.448Z,98192.72
2023-03-14T11:02:27.443Z,98170.41
2023-03-14T11:05:48.423Z,98174.41
2023-03-14T11:08:37.100Z,98192.03
2023-03-14T11:11:09.721Z,98178.56
2023-03-14T11:13:49.530Z,98175.06
2023-03-14T11:17:08.467Z,98174.25
2023-03-14T11:19:58.409Z,98193.06
2023-03-14T11:22:41.274Z,98174.91
2023-03-14T11:25:14.984Z,98186.72
2023-03-14T11:27:57.153Z,98182.25
2023-03-14T11:30:54.594Z,98171.75
2023-03-14T11:33:29.231Z,98180.41
2023-03-14T11:36:09.151Z,98171.75
2023-03-14T11:38:44.513Z,98173.75
2023-03-14T11:41:15.974Z,98175.56
2023-03-14T11:43:44.202Z,98158.56
2023-03-14T11:46:20.019Z,98162.53
2023-03-14T11:49:09.616Z,98175.69
2023-03-14T11:51:45.826Z,98159.19
2023-03-14T11:54:38.508Z,98191.81
2023-03-14T11:57:06.856Z,98143.47
2023-03-14T11:59:47.865Z,98164.53
2023-03-14T12:02:33.238Z,98159.84
2023-03-14T12:05:15.132Z,98162.50
2023-03-14T12:08:24.513Z,98156.16
2023-03-14T12:10:55.788Z,98162.19
2023-03-14T12:13:22.817Z,98155.91
2023-03-14T12:16:01.679Z,98171.41
2023-03-14T12:18:39.749Z,98153.91
2023-03-14T12:21:12.356Z,98174.41
2023-03-14T12:23:44.493Z,98176.78
2023-03-14T12:26:24.437Z,98167.78
2023-03-14T12:28:53.825Z,98163.34
2023-03-14T12:31:30.210Z,98169.69
2023-03-14T12:34:12.236Z,98169.38
2023-03-14T12:36:51.148Z,98168.53
2023-03-14T12:39:29.472Z,98159.00
2023-03-14T12:42:42.515Z,98159.31
2023-03-14T12:45:33.754Z,98154.63
2023-03-14T12:48:20.648Z,98150.44
2023-03-14T12:50:55.451Z,98147.03
2023-03-14T12:53:44.231Z,98122.47
2023-03-14T12:56:16.242Z,98135.47
2023-03-14T12:58:50.341Z,98129.38
2023-03-14T13:01:19.683Z,98132.41
2023-03-14T13:03:54.580Z,98123.63
2023-03-14T13:06:55.197Z,98131.00
2023-03-14T13:09:52.886Z,98141.84
2023-03-14T13:12:21.039Z,98136.66
2023-03-14T13:14:52.630Z,98143.47
2023-03-14T13:17:36.602Z,98137.09
2023-03-14T13:20:13.029Z,98137.06
2023-03-14T13:22:40.035Z,98119.38
2023-03-14T13:25:10.613Z,98142.09
2023-03-14T13:27:37.607Z,98117.91
2023-03-14T13:30:17.348Z,98159.22
2023-03-14T13:32:45.570Z,98129.34
2023-03-14T13:35:17.812Z,98109.66
2023-03-14T13:37:44.620Z,98109.06
2023-03-14T13:40:25.504Z,98107.41
2023-03-14T13:43:00.259Z,98116.41
2023-03-14T13:45:26.967Z,98099.81
2023-03-14T13:47:53.693Z,98090.28
2023-03-14T13:50:20.581Z,98104.91
2023-03-14T13:52:48.346Z,98097.47
2023-03-14T13:55:18.504Z,98091.75
2023-03-14T13:57:56.888Z,98095.63
2023-03-14T14:00:28.308Z,98103.34
2023-03-14T14:02:56.264Z,98089.44
2023-03-14T14:05:24.364Z,98098.09
2023-03-14T14:07:52.415Z,98088.22
2023-03-14T14:10:19.690Z,98083.44
2023-03-14T14:13:00.542Z,98087.94
2023-03-14T14:15:27.771Z,98088.75
2023-03-14T14:17:58.399Z,98079.13
2023-03-14T14:20:35.933Z,98063.47
2023-03-14T14:23:04.687Z,98079.03
2023-03-14T14:25:31.882Z,98070.09
2023-03-14T14:27:58.977Z,98066.06
2023-03-14T14:30:33.018Z,98077.09
2023-03-14T14:33:21.639Z,98068.63
2023-03-14T14:35:58.819Z,98069.81
2023-03-14T14:38:26.280Z,98075.44
2023-03-14T14:40:56.240Z,98078.13
2023-03-14T14:43:25.406Z,98063.44
2023-03-14T14:45:54.375Z,98071.25
2023-03-14T14:48:24.265Z,98095.06
2023-03-14T14:50:55.758Z,98093.66
2023-03-14T14:53:32.730Z,98088.22
2023-03-14T14:56:01.423Z,98086.06
2023-03-14T14:58:29.880Z,98079.78
2023-03-14T15:01:16.029Z,98086.88
2023-03-14T15:03:48.396Z,98079.94
2023-03-14T15:06:16.706Z,98096.09
2023-03-14T15:08:44.989Z,98121.81
2023-03-14T15:11:19.613Z,98140.91
2023-03-14T15:13:46.405Z,98123.94
2023-03-14T15:16:15.463Z,98125.84
2023-03-14T15:18:44.121Z,98090.09
2023-03-14T15:21:11.577Z,98105.22
2023-03-14T15:23:38.552Z,98206.22
2023-03-14T15:26:12.892Z,98243.97
2023-03-14T15:28:39.928Z,98278.88
2023-03-14T15:31:10.770Z,98318.84
2023-03-14T15:33:37.571Z,98335.72
2023-03-14T15:36:06.163Z,98361.47
2023-03-14T15:38:32.891Z,98370.03
2023-03-14T15:40:59.720Z,98380.59
2023-03-14T15:43:26.445Z,98411.28
2023-03-14T15:45:53.527Z,98402.09
2023-03-14T15:48:22.478Z,98437.41
2023-03-14T15:50:49.224Z,98454.19
2023-03-14T15:53:16.207Z,98461.97
2023-03-14T15:55:42.974Z,98488.03
2023-03-14T15:58:21.107Z,98535.09
2023-03-14T16:00:49.222Z,98534.25
2023-03-14T16:03:15.976Z,98537.28
2023-03-14T16:05:42.966Z,98542.91
2023-03-14T16:08:09.863Z,98562.19
2023-03-14T16:10:36.749Z,98560.09
2023-03-14T16:13:03.556Z,98584.91
2023-03-14T16:15:30.386Z,98596.50
2023-03-14T16:17:57.192Z,98606.44
2023-03-14T16:20:24.649Z,98633.13
2023-03-14T16:22:55.060Z,98645.31
2023-03-14T16:25:21.861Z,98663.69
2023-03-14T16:27:51.555Z,98678.31
2023-03-14T16:30:20.624Z,98698.09
2023-03-14T16:32:48.479Z,98708.38
2023-03-14T16:35:15.450Z,98730.88
2023-03-14T16:37:42.189Z,98751.72
2023-03-14T16:40:13.116Z,98770.53
2023-03-14T16:42:54.934Z,98780.63
2023-03-14T16:45:27.223Z,98779.59
2023-03-14T16:47:54.022Z,98776.03
2023-03-14T16:50:20.732Z,98784.56
2023-03-14T16:52:49.869Z,98783.75
2023-03-14T16:55:16.740Z,98785.50
2023-03-14T16:57:43.478Z,98802.94
2023-03-14T17:00:12.304Z,98812.84
2023-03-14T17:02:39.222Z,98828.78
2023-03-14T17:05:06.311Z,98830.28
2023-03-14T17:07:33.158Z,98847.13
2023-03-14T17:09:59.889Z,98858.38
2023-03-14T17:12:26.674Z,98874.56
2023-03-14T17:14:54.158Z,98898.66
2023-03-14T17:17:20.834Z,98913.84
2023-03-14T17:19:47.599Z,98914.00
2023-03-14T17:22:23.292Z,98923.69
2023-03-14T17:24:51.515Z,98937.84
2023-03-14T17:27:20.583Z,98961.53
2023-03-14T17:29:48.343Z,98966.31
2023-03-14T17:32:16.153Z,98970.03
2023-03-14T17:34:42.940Z,98987.88
2023-03-14T17:37:09.649Z,99002.25
2023-03-14T17:39:36.530Z,99009.00
2023-03-14T17:42:03.482Z,99008.97
2023-03-14T17:44:31.739Z,99031.94
2023-03-14T17:46:59.593Z,99032.88
2023-03-14T17:49:26.347Z,99042.00
2023-03-14T17:51:53.270Z,99049.09
2023-03-14T17:54:20.569Z,99055.06
2023-03-14T17:56:49.128Z,99054.72
2023-03-14T17:59:16.370Z,99054.03
2023-03-14T18:01:44.352Z,99070.38
2023-03-14T18:04:11.319Z,99078.25
2023-03-14T18:06:38.188Z,99083.94
2023-03-14T18:09:06.076Z,99099.34
2023-03-14T18:11:32.927Z,99107.88
2023-03-14T18:14:01.781Z,99121.56
2023-03-14T18:16:28.730Z,99136.38
2023-03-14T18:18:57.689Z,99151.13
2023-03-14T18:21:24.387Z,99148.19
2023-03-14T18:23:51.278Z,99150.97
2023-03-14T18:26:18.656Z,99145.97
2023-03-14T18:28:47.127Z,99151.41
2023-03-14T18:31:18.279Z,99161.09
2023-03-14T18:33:47.982Z,99171.44
2023-03-14T18:36:15.539Z,99177.88
2023-03-14T18:38:46.515Z,99181.84
2023-03-14T18:41:15.708Z,99189.13
2023-03-14T18:43:43.297Z,99195.91
2023-03-14T18:46:13.238Z,99191.59
2023-03-14T18:48:42.632Z,99210.72
2023-03-14T18:51:11.763Z,99193.28
2023-03-14T18:53:39.348Z,99213.28
2023-03-14T18:56:06.733Z,99212.66
2023-03-14T18:58:34.004Z,99225.28
2023-03-14T19:01:03.667Z,99235.38
2023-03-14T19:03:32.013Z,99244.94
2023-03-14T19:06:00.761Z,99251.44
2023-03-14T19:08:28.808Z,99254.63
2023-03-14T19:10:59.213Z,99264.56
2023-03-14T19:13:27.554Z,99276.31
2023-03-14T19:15:54.553Z,99278.28
2023-03-14T19:18:21.805Z,99293.94
2023-03-14T19:21:03.741Z,99293.78
2023-03-14T19:23:31.571Z,99296.16
2023-03-14T19:25:58.387Z,99294.31
2023-03-14T19:28:25.584Z,99303.34
2023-03-14T19:30:52.379Z,99306.66
2023-03-14T19:33:20.017Z,99307.16
2023-03-14T19:35:47.446Z,99321.91
2023-03-14T19:38:15.077Z,99323.84
2023-03-14T19:40:44.999Z,99332.59
2023-03-14T19:43:12.493Z,99333.16
2023-03-14T19:45:39.565Z,99333.94
2023-03-14T19:48:07.478Z,99344.91
2023-03-14T19:50:35.177Z,99345.94
2023-03-14T19:53:03.621Z,99354.94
2023-03-14T19:55:35.261Z,99371.00
2023-03-14T19:58:02.456Z,99381.66
2023-03-14T20:00:29.735Z,99379.81
2023-03-14T20:02:56.531Z,99373.50
2023-03-14T20:05:24.456Z,99391.38
2023-03-14T20:07:51.963Z,99399.00
2023-03-14T20:10:23.123Z,99403.78
2023-03-14T20:12:51.114Z,99405.94
2023-03-14T20:15:19.684Z,99421.09
2023-03-14T20:17:49.687Z,99421.16
2023-03-14T20:20:17.458Z,99431.50
2023-03-14T20:22:44.763Z,99432.94
2023-03-14T20:25:14.371Z,99449.09
2023-03-14T20:27:41.602Z,99452.72
2023-03-14T20:30:13.106Z,99461.06
2023-03-14T20:32:41.177Z,99463.00
2023-03-14T20:35:10.295Z,99470.88
2023-03-14T20:37:37.672Z,99473.41
2023-03-14T20:40:09.360Z,99489.00
2023-03-14T20:42:36.219Z,99494.31
2023-03-14T20:45:02.906Z,99496.25
2023-03-14T20:47:56.571Z,99500.97
2023-03-14T20:50:34.853Z,99512.31
2023-03-14T20:53:15.572Z,99514.31
2023-03-14T20:55:46.036Z,99519.41
2023-03-14T20:58:13.440Z,99525.81
2023-03-14T21:00:51.288Z,99525.97
2023-03-14T21:03:19.205Z,99543.56
2023-03-14T21:05:50.599Z,99532.13
2023-03-14T21:08:21.898Z,99522.03
2023-03-14T21:11:16.968Z,99523.63
2023-03-14T21:14:14.288Z,99542.28
2023-03-14T21:16:40.144Z,99543.38
2023-03-14T21:19:09.954Z,99548.97
2023-03-14T21:21:40.341Z,99538.50
2023-03-14T21:24:16.457Z,99552.41
2023-03-14T21:26:48.073Z,99546.88
2023-03-14T21:29:15.223Z,99554.19
2023-03-14T21:31:46.796Z,99564.66
2023-03-14T21:34:14.018Z,99573.53
2023-03-14T21:36:43.673Z,99579.50
2023-03-14T21:39:16.049Z,99582.75
2023-03-14T21:41:46.526Z,99573.09
2023-03-14T21:44:26.728Z,99591.69
2023-03-14T21:47:02.260Z,99605.94
2023-03-14T21:49:39.125Z,99616.69
2023-03-14T21:52:07.773Z,99622.84
2023-03-14T21:54:35.103Z,99613.00
2023-03-14T21:57:08.232Z,99635.69
2023-03-14T21:59:39.172Z,99627.81
2023-03-14T22:02:09.017Z,99635.31
2023-03-14T22:04:39.333Z,99639.00
2023-03-14T22:07:22.550Z,99635.25
2023-03-14T22:09:59.268Z,99646.94
2023-03-14T22:12:31.859Z,99654.13
2023-03-14T22:15:00.960Z,99638.16
2023-03-14T22:17:29.448Z,99651.34
2023-03-14T22:19:59.176Z,99655.81
2023-03-14T22:22:26.495Z,99661.53
2023-03-14T22:24:56.551Z,99649.63
2023-03-14T22:27:26.579Z,99658.34
2023-03-14T22:29:56.126Z,99668.97
2023-03-14T22:32:23.547Z,99667.41
2023-03-14T22:34:50.754Z,99671.19
2023-03-14T22:37:17.861Z,99673.06
2023-03-14T22:39:50.337Z,99675.78
2023-03-14T22:42:17.494Z,99685.44
2023-03-14T22:44:52.100Z,99689.28
2023-03-14T22:47:22.171Z,99693.50
2023-03-14T22:49:49.060Z,99700.41
2023-03-14T22:52:17.758Z,99704.59
2023-03-14T22:54:44.626Z,99724.72
2023-03-14T22:57:13.976Z,99714.56
2023-03-14T22:59:43.220Z,99704.09
2023-03-14T23:02:15.520Z,99718.25
2023-03-14T23:04:43.007Z,99712.63
2023-03-14T23:07:12.939Z,99730.19
2023-03-14T23:09:47.421Z,99729.84
2023-03-14T23:12:19.439Z,99735.59
2023-03-14T23:14:46.360Z,99747.47
2023-03-14T23:17:31.488Z,99752.56
2023-03-14T23:19:59.634Z,99751.38
2023-03-14T23:22:35.350Z,99760.63
2023-03-14T23:25:05.069Z,99758.34
2023-03-14T23:27:37.545Z,99752.75
2023-03-14T23:30:18.108Z,99757.97
2023-03-14T23:32:45.303Z,99759.13
2023-03-14T23:35:14.154Z,99760.97
2023-03-14T23:37:43.410Z,99761.81
2023-03-14T23:40:16.475Z,99784.53
2023-03-14T23:42:50.838Z,99780.50
2023-03-14T23:45:17.888Z,99780.38
2023-03-14T23:47:44.876Z,99781.59
2023-03-14T23:50:12.091Z,99778.44
2023-03-14T23:52:39.213Z,99789.97
2023-03-14T23:55:11.865Z,99795.75
2023-03-14T23:57:43.779Z,99794.31
